createdAt,value
2023-05-18T00:02:10.016Z,1.88
2023-05-18T00:04:41.019Z,2.03
2023-05-18T00:07:13.488Z,2.40
2023-05-18T00:09:44.560Z,2.13
2023-05-18T00:12:16.078Z,1.92
2023-05-18T00:14:49.618Z,2.25
2023-05-18T00:17:22.181Z,1.90
2023-05-18T00:19:53.235Z,2.35
2023-05-18T00:22:26.707Z,1.90
2023-05-18T00:24:58.404Z,1.88
2023-05-18T00:27:29.971Z,1.92
2023-05-18T00:30:03.640Z,2.00
2023-05-18T00:32:35.586Z,1.75
2023-05-18T00:35:06.740Z,2.00
2023-05-18T00:37:37.984Z,1.70
2023-05-18T00:42:41.917Z,2.17
2023-05-18T00:45:18.220Z,1.75
2023-05-18T00:47:49.725Z,1.85
2023-05-18T00:50:20.998Z,2.17
2023-05-18T00:52:52.768Z,1.80
2023-05-18T00:55:23.719Z,1.83
2023-05-18T00:57:56.753Z,1.58
2023-05-18T01:00:30.578Z,2.42
2023-05-18T01:03:02.515Z,1.85
2023-05-18T01:05:33.672Z,1.55
2023-05-18T01:08:05.284Z,1.80
2023-05-18T01:10:40.021Z,2.47
2023-05-18T01:13:21.525Z,1.50
2023-05-18T01:16:03.104Z,1.83
2023-05-18T01:18:40.726Z,2.03
2023-05-18T01:21:25.832Z,1.48
2023-05-18T01:24:16.822Z,1.70
2023-05-18T01:26:57.721Z,2.10
2023-05-18T01:29:32.348Z,1.55
2023-05-18T01:32:03.333Z,2.03
2023-05-18T01:34:35.410Z,2.10
2023-05-18T01:37:06.685Z,1.63
2023-05-18T01:39:38.049Z,1.88
2023-05-18T01:42:15.211Z,1.80
2023-05-18T01:44:51.564Z,2.05
2023-05-18T01:47:22.963Z,1.75
2023-05-18T01:49:59.883Z,1.73
2023-05-18T01:52:35.906Z,1.80
2023-05-18T01:55:09.660Z,1.75
2023-05-18T01:57:47.080Z,2.30
2023-05-18T02:00:21.960Z,2.22
2023-05-18T02:02:53.132Z,2.42
2023-05-18T02:05:25.412Z,2.53
2023-05-18T02:07:57.530Z,2.00
2023-05-18T02:10:28.850Z,2.08
2023-05-18T02:15:33.928Z,1.95
2023-05-18T02:18:04.981Z,1.90
2023-05-18T02:20:38.345Z,1.98
2023-05-18T02:23:09.293Z,2.08
2023-05-18T02:25:41.090Z,2.38
2023-05-18T02:28:14.655Z,2.17
2023-05-18T02:30:46.710Z,2.05
2023-05-18T02:33:20.075Z,2.17
2023-05-18T02:35:51.355Z,2.30
2023-05-18T02:43:26.620Z,1.20
2023-05-18T02:46:00.063Z,2.10
2023-05-18T02:48:32.169Z,2.33
2023-05-18T02:51:03.763Z,2.00
2023-05-18T02:53:35.401Z,2.40
2023-05-18T02:56:13.713Z,2.20
2023-05-18T02:58:58.318Z,2.65
2023-05-18T03:01:38.055Z,2.10
2023-05-18T03:04:09.265Z,2.50
2023-05-18T03:06:46.931Z,2.20
2023-05-18T03:09:19.651Z,1.90
2023-05-18T03:11:52.041Z,1.90
2023-05-18T03:14:25.763Z,2.70
2023-05-18T03:16:59.642Z,2.03
2023-05-18T03:19:31.274Z,2.30
2023-05-18T03:22:04.446Z,2.33
2023-05-18T03:24:40.892Z,2.42
2023-05-18T03:27:18.730Z,2.20
2023-05-18T03:29:53.448Z,2.60
2023-05-18T03:32:25.093Z,2.08
2023-05-18T03:34:56.238Z,2.30
2023-05-18T03:37:27.468Z,2.58
2023-05-18T03:40:03.603Z,2.75
2023-05-18T03:42:35.475Z,2.67
2023-05-18T03:45:10.666Z,2.15
2023-05-18T03:47:43.296Z,2.67
2023-05-18T03:50:14.952Z,3.20
2023-05-18T03:52:47.655Z,2.80
2023-05-18T03:55:21.765Z,1.90
2023-05-18T03:57:54.152Z,3.30
2023-05-18T04:00:28.799Z,5.97
2023-05-18T04:03:01.009Z,4.72
2023-05-18T04:05:32.617Z,5.03
2023-05-18T04:08:03.990Z,4.60
2023-05-18T04:10:35.293Z,2.90
2023-05-18T04:13:06.669Z,3.30
2023-05-18T04:15:41.128Z,2.90
2023-05-18T04:18:13.560Z,2.53
2023-05-18T04:20:46.721Z,2.97
2023-05-18T04:23:18.183Z,2.50
2023-05-18T04:25:49.737Z,2.97
2023-05-18T04:28:29.026Z,4.72
2023-05-18T04:31:03.058Z,5.90
2023-05-18T04:33:34.472Z,4.20
2023-05-18T04:36:05.946Z,3.80
2023-05-18T04:38:38.734Z,2.80
2023-05-18T04:41:10.011Z,3.58
2023-05-18T04:43:42.966Z,2.40
2023-05-18T04:46:17.250Z,2.30
2023-05-18T04:48:50.256Z,2.00
2023-05-18T04:51:23.275Z,2.20
2023-05-18T04:53:56.117Z,2.47
2023-05-18T04:56:27.185Z,2.17
2023-05-18T04:58:59.840Z,2.75
2023-05-18T05:01:36.463Z,2.10
2023-05-18T05:04:08.187Z,1.73
2023-05-18T05:06:40.031Z,2.40
2023-05-18T05:09:14.411Z,1.67
2023-05-18T05:11:45.769Z,2.17
2023-05-18T05:14:18.383Z,1.55
2023-05-18T05:16:52.363Z,1.65
2023-05-18T05:19:24.641Z,1.48
2023-05-18T05:21:56.248Z,1.67
2023-05-18T05:24:29.107Z,1.58
2023-05-18T05:27:01.153Z,1.40
2023-05-18T05:29:33.234Z,1.77
2023-05-18T05:32:12.637Z,1.65
2023-05-18T05:34:47.279Z,1.92
2023-05-18T05:37:20.094Z,1.10
2023-05-18T05:39:54.065Z,1.67
2023-05-18T05:42:26.019Z,1.40
2023-05-18T05:45:00.546Z,1.10
2023-05-18T05:47:34.589Z,1.10
2023-05-18T05:50:06.335Z,1.08
2023-05-18T05:52:40.483Z,1.25
2023-05-18T05:55:12.072Z,1.13
2023-05-18T05:57:43.331Z,1.00
2023-05-18T06:00:17.372Z,0.88
2023-05-18T06:03:06.405Z,0.77
2023-05-18T06:05:44.826Z,0.68
2023-05-18T06:08:17.581Z,0.85
2023-05-18T06:10:49.598Z,1.00
2023-05-18T06:13:21.291Z,0.50
2023-05-18T06:15:55.391Z,0.82
2023-05-18T06:18:30.344Z,0.77
2023-05-18T06:21:05.429Z,0.88
2023-05-18T06:23:37.867Z,0.60
2023-05-18T06:26:28.786Z,0.90
2023-05-18T06:29:13.984Z,0.80
2023-05-18T06:32:23.712Z,1.20
2023-05-18T06:35:01.709Z,0.98
2023-05-18T06:37:33.530Z,1.00
2023-05-18T06:40:05.007Z,0.75
2023-05-18T06:42:36.714Z,1.00
2023-05-18T06:45:26.277Z,0.50
2023-05-18T06:48:01.524Z,0.80
2023-05-18T06:50:36.754Z,1.00
2023-05-18T06:53:08.180Z,0.75
2023-05-18T06:55:39.209Z,0.95
2023-05-18T06:58:10.523Z,1.10
2023-05-18T07:00:41.977Z,0.90
2023-05-18T07:03:14.612Z,0.90
2023-05-18T07:08:19.517Z,1.10
2023-05-18T07:13:24.002Z,1.30
2023-05-18T07:15:55.824Z,1.10
2023-05-18T07:18:27.105Z,1.40
2023-05-18T07:23:31.640Z,1.52
2023-05-18T07:26:02.623Z,1.30
2023-05-18T07:28:36.094Z,0.82
2023-05-18T07:31:07.909Z,1.00
2023-05-18T07:33:41.064Z,1.27
2023-05-18T07:36:15.087Z,1.15
2023-05-18T07:38:46.337Z,1.30
2023-05-18T07:48:50.637Z,1.45
2023-05-18T07:53:55.367Z,1.90
2023-05-18T07:56:26.392Z,1.30
2023-05-18T07:58:57.698Z,1.35
2023-05-18T08:04:01.873Z,1.55
2023-05-18T08:06:35.516Z,1.40
2023-05-18T08:09:07.431Z,2.00
2023-05-18T08:11:38.493Z,2.28
2023-05-18T08:14:09.827Z,2.05
2023-05-18T08:19:12.082Z,2.63
2023-05-18T08:24:18.028Z,1.77
2023-05-18T08:26:48.891Z,2.00
2023-05-18T08:29:20.455Z,1.70
2023-05-18T08:31:51.421Z,1.73
2023-05-18T08:34:23.071Z,1.52
2023-05-18T08:36:56.894Z,1.80
2023-05-18T08:39:32.029Z,1.83
2023-05-18T08:42:06.686Z,1.33
2023-05-18T08:44:43.727Z,1.10
2023-05-18T08:47:16.659Z,1.10
2023-05-18T08:49:51.699Z,2.00
2023-05-18T08:52:29.952Z,1.63
2023-05-18T08:55:03.140Z,1.60
2023-05-18T08:57:35.623Z,1.80
2023-05-18T09:00:10.302Z,1.40
2023-05-18T09:02:42.724Z,1.65
2023-05-18T09:05:15.654Z,1.70
2023-05-18T09:07:50.311Z,1.60
2023-05-18T09:10:22.155Z,2.58
2023-05-18T09:12:54.006Z,1.52
2023-05-18T09:15:26.401Z,1.45
2023-05-18T09:17:57.508Z,1.38
2023-05-18T09:20:31.032Z,1.60
2023-05-18T09:23:04.587Z,1.70
2023-05-18T09:25:37.700Z,1.10
2023-05-18T09:28:08.743Z,1.00
2023-05-18T09:30:44.524Z,2.20
2023-05-18T09:33:22.315Z,2.00
2023-05-18T09:35:54.862Z,1.45
2023-05-18T09:38:28.453Z,1.52
2023-05-18T09:41:01.317Z,1.20
2023-05-18T09:43:32.636Z,0.95
2023-05-18T09:46:10.076Z,0.90
2023-05-18T09:48:45.645Z,1.00
2023-05-18T09:51:18.514Z,0.73
2023-05-18T09:53:57.724Z,0.60
2023-05-18T09:56:30.298Z,0.60
2023-05-18T09:59:01.724Z,0.90
2023-05-18T10:01:33.381Z,0.50
2023-05-18T10:04:06.896Z,0.70
2023-05-18T10:06:38.202Z,0.55
2023-05-18T10:11:49.646Z,0.70
2023-05-18T10:14:20.573Z,0.90
2023-05-18T10:17:03.547Z,1.00
2023-05-18T10:19:39.941Z,0.90
2023-05-18T10:22:11.821Z,0.77
2023-05-18T10:24:48.499Z,0.70
2023-05-18T10:27:26.569Z,0.80
2023-05-18T10:30:04.086Z,0.80
2023-05-18T10:32:38.614Z,0.90
2023-05-18T10:35:11.147Z,1.10
2023-05-18T10:37:47.621Z,0.73
2023-05-18T10:40:22.503Z,0.75
2023-05-18T10:42:55.110Z,1.00
2023-05-18T10:45:27.048Z,0.80
2023-05-18T10:48:00.574Z,1.02
2023-05-18T10:50:33.244Z,1.67
2023-05-18T10:53:05.202Z,1.10
2023-05-18T10:55:38.801Z,1.08
2023-05-18T10:58:15.866Z,1.20
2023-05-18T11:00:51.615Z,1.15
2023-05-18T11:03:25.707Z,1.27
2023-05-18T11:06:10.685Z,1.33
2023-05-18T11:08:50.148Z,0.82
2023-05-18T11:11:30.257Z,1.30
2023-05-18T11:14:05.040Z,1.20
2023-05-18T11:16:37.905Z,1.00
2023-05-18T11:19:11.711Z,1.60
2023-05-18T11:22:14.536Z,1.20
2023-05-18T11:24:45.919Z,0.70
2023-05-18T11:27:20.700Z,1.02
2023-05-18T11:29:57.709Z,1.02
2023-05-18T11:32:36.898Z,0.80
2023-05-18T11:35:11.402Z,1.10
2023-05-18T11:37:52.972Z,0.80
2023-05-18T11:40:48.791Z,1.02
2023-05-18T11:43:27.975Z,0.90
2023-05-18T11:46:01.214Z,0.93
2023-05-18T11:48:32.969Z,0.90
2023-05-18T11:51:09.678Z,0.70
2023-05-18T11:53:42.003Z,1.00
2023-05-18T11:56:16.109Z,1.02
2023-05-18T11:58:50.267Z,0.82
2023-05-18T12:01:24.053Z,1.20
2023-05-18T12:03:55.547Z,0.80
2023-05-18T12:06:29.411Z,0.90
2023-05-18T12:09:03.139Z,0.90
2023-05-18T12:11:35.428Z,1.02
2023-05-18T12:14:10.430Z,1.00
2023-05-18T12:16:43.452Z,0.82
2023-05-18T12:19:14.481Z,0.85
2023-05-18T12:21:46.391Z,1.00
2023-05-18T12:24:17.237Z,0.80
2023-05-18T12:26:51.793Z,0.80
2023-05-18T12:29:25.351Z,0.88
2023-05-18T12:31:56.605Z,1.08
2023-05-18T12:34:32.551Z,1.20
2023-05-18T12:37:04.008Z,1.10
2023-05-18T12:39:35.504Z,1.10
2023-05-18T12:42:16.958Z,1.10
2023-05-18T12:44:51.167Z,1.08
2023-05-18T12:47:22.447Z,1.25
2023-05-18T12:49:53.398Z,1.13
2023-05-18T12:52:24.989Z,1.05
2023-05-18T12:55:01.742Z,1.20
2023-05-18T12:57:33.668Z,1.05
2023-05-18T13:00:10.895Z,1.00
2023-05-18T13:02:42.367Z,1.27
2023-05-18T13:05:14.925Z,1.20
2023-05-18T13:07:47.785Z,1.40
2023-05-18T13:10:22.222Z,1.30
2023-05-18T13:12:59.434Z,1.50
2023-05-18T13:15:37.262Z,1.60
2023-05-18T13:18:10.852Z,1.00
2023-05-18T13:20:45.361Z,1.42
2023-05-18T13:23:18.904Z,2.10
2023-05-18T13:25:49.860Z,1.50
2023-05-18T13:28:23.088Z,3.47
2023-05-18T13:30:56.653Z,2.20
2023-05-18T13:33:28.053Z,1.40
2023-05-18T13:36:01.608Z,1.42
2023-05-18T13:38:35.865Z,1.35
2023-05-18T13:41:07.407Z,1.30
2023-05-18T13:43:38.604Z,1.40
2023-05-18T13:48:43.188Z,1.17
2023-05-18T13:51:16.494Z,1.25
2023-05-18T13:53:48.010Z,1.20
2023-05-18T13:58:50.441Z,1.23
2023-05-18T14:01:24.307Z,1.30
2023-05-18T14:03:55.587Z,1.10
2023-05-18T14:08:59.279Z,1.10
2023-05-18T14:11:34.897Z,1.38
2023-05-18T14:14:06.185Z,0.80
2023-05-18T14:19:11.066Z,1.13
2023-05-18T14:26:44.133Z,1.73
2023-05-18T14:29:15.404Z,2.00
2023-05-18T14:31:49.544Z,1.40
2023-05-18T14:34:20.893Z,2.25
2023-05-18T14:39:23.027Z,1.67
2023-05-18T14:44:25.111Z,5.60
2023-05-18T14:49:29.638Z,3.92
2023-05-18T14:52:00.510Z,2.67
2023-05-18T14:54:31.742Z,2.08
2023-05-18T14:57:02.780Z,2.53
2023-05-18T14:59:34.069Z,2.95
2023-05-18T15:04:39.943Z,2.97
2023-05-18T15:07:10.839Z,2.60
2023-05-18T15:09:42.025Z,13.07
2023-05-18T15:14:43.893Z,5.43
2023-05-18T15:17:18.282Z,2.72
2023-05-18T15:19:49.734Z,2.65
2023-05-18T15:22:20.693Z,2.20
2023-05-18T15:24:52.041Z,2.20
2023-05-18T15:27:23.565Z,2.00
2023-05-18T15:29:55.353Z,3.30
2023-05-18T15:32:30.046Z,3.97
2023-05-18T15:35:01.405Z,2.15
2023-05-18T15:40:04.310Z,1.63
2023-05-18T15:42:35.257Z,1.80
2023-05-18T15:45:06.792Z,1.63
2023-05-18T15:47:40.518Z,2.05
2023-05-18T15:50:13.546Z,2.55
2023-05-18T15:52:44.706Z,1.10
2023-05-18T15:55:16.888Z,1.10
2023-05-18T15:57:47.829Z,1.17
2023-05-18T16:00:22.567Z,1.48
2023-05-18T16:02:56.195Z,2.28
2023-05-18T16:05:28.279Z,10.30
2023-05-18T16:07:59.993Z,11.20
2023-05-18T16:10:31.657Z,3.55
2023-05-18T16:13:06.200Z,9.27
2023-05-18T16:15:37.875Z,6.80
2023-05-18T16:18:12.020Z,2.10
2023-05-18T16:20:43.644Z,2.50
2023-05-18T16:23:14.855Z,3.20
2023-05-18T16:25:46.469Z,3.13
2023-05-18T16:28:18.052Z,2.25
2023-05-18T16:30:49.479Z,1.70
2023-05-18T16:33:24.719Z,1.63
2023-05-18T16:35:58.651Z,3.80
2023-05-18T16:38:31.779Z,3.67
2023-05-18T16:41:03.200Z,2.90
2023-05-18T16:43:34.804Z,2.55
2023-05-18T16:46:06.359Z,3.33
2023-05-18T16:48:42.974Z,2.67
2023-05-18T16:51:15.961Z,3.42
2023-05-18T16:53:47.431Z,5.88
2023-05-18T16:56:22.444Z,4.72
2023-05-18T16:58:54.081Z,4.65
2023-05-18T17:01:28.518Z,5.57
2023-05-18T17:04:03.003Z,10.43
2023-05-18T17:06:38.503Z,10.40
2023-05-18T17:09:09.789Z,3.55
2023-05-18T17:11:40.989Z,6.35
2023-05-18T17:16:46.319Z,6.97
2023-05-18T17:19:19.817Z,5.22
2023-05-18T17:21:51.402Z,4.55
2023-05-18T17:24:22.317Z,4.18
2023-05-18T17:26:53.587Z,3.83
2023-05-18T17:34:30.938Z,6.57
2023-05-18T17:37:02.583Z,6.32
2023-05-18T17:39:33.661Z,5.68
2023-05-18T17:42:04.900Z,8.55
2023-05-18T17:47:07.758Z,5.68
2023-05-18T17:49:41.332Z,8.60
2023-05-18T17:52:12.910Z,7.28
2023-05-18T17:54:45.252Z,6.20
2023-05-18T17:57:16.815Z,5.75
2023-05-18T17:59:47.789Z,5.93
2023-05-18T18:02:19.112Z,6.57
2023-05-18T18:07:23.769Z,6.82
2023-05-18T18:09:54.633Z,9.27
2023-05-18T18:12:25.835Z,11.48
2023-05-18T18:17:28.529Z,9.38
2023-05-18T18:20:02.347Z,5.70
2023-05-18T18:22:35.701Z,7.70
2023-05-18T18:25:10.959Z,9.25
2023-05-18T18:27:42.171Z,9.73
2023-05-18T18:30:14.551Z,9.32
2023-05-18T18:32:45.933Z,10.40
2023-05-18T18:35:19.705Z,12.57
2023-05-18T18:37:51.059Z,13.13
2023-05-18T18:42:53.594Z,7.10
2023-05-18T18:45:24.475Z,6.28
2023-05-18T18:47:55.954Z,6.78
2023-05-18T18:50:29.889Z,5.07
2023-05-18T18:53:01.389Z,4.40
2023-05-18T18:55:35.064Z,5.00
2023-05-18T18:58:08.353Z,4.32
2023-05-18T19:00:39.429Z,4.97
2023-05-18T19:03:11.187Z,5.80
2023-05-18T19:05:44.988Z,6.47
2023-05-18T19:08:17.111Z,5.85
2023-05-18T19:10:51.565Z,5.97
2023-05-18T19:13:23.036Z,6.07
2023-05-18T19:15:56.985Z,5.80
2023-05-18T19:18:28.449Z,5.80
2023-05-18T19:21:05.095Z,5.68
2023-05-18T19:23:36.497Z,6.57
2023-05-18T19:26:07.483Z,5.53
2023-05-18T19:28:38.792Z,4.03
2023-05-18T19:33:41.800Z,4.13
2023-05-18T19:38:46.890Z,3.30
2023-05-18T19:43:59.139Z,7.35
2023-05-18T19:46:36.236Z,9.23
2023-05-18T19:49:10.366Z,11.82
2023-05-18T19:51:44.229Z,13.40
2023-05-18T19:54:18.020Z,9.75
2023-05-18T19:56:49.725Z,8.77
2023-05-18T19:59:21.177Z,8.52
2023-05-18T20:01:54.228Z,4.90
2023-05-18T20:04:25.700Z,4.82
2023-05-18T20:07:00.233Z,4.97
2023-05-18T20:09:37.596Z,4.68
2023-05-18T20:12:09.477Z,5.68
2023-05-18T20:14:44.103Z,9.27
2023-05-18T20:17:17.431Z,8.55
2023-05-18T20:19:50.878Z,8.85
2023-05-18T20:22:25.282Z,6.75
2023-05-18T20:25:01.574Z,3.88
2023-05-18T20:27:32.900Z,3.88
2023-05-18T20:30:04.522Z,4.00
2023-05-18T20:32:36.096Z,3.72
2023-05-18T20:35:08.508Z,4.03
2023-05-18T20:37:44.737Z,6.13
2023-05-18T20:40:16.745Z,7.82
2023-05-18T20:42:48.297Z,6.50
2023-05-18T20:45:20.369Z,5.70
2023-05-18T20:47:52.281Z,5.65
2023-05-18T20:50:25.257Z,5.10
2023-05-18T20:52:59.456Z,9.77
2023-05-18T20:55:31.132Z,9.15
2023-05-18T20:58:02.861Z,9.68
2023-05-18T21:00:34.924Z,11.45
2023-05-18T21:03:06.662Z,12.10
2023-05-18T21:05:39.185Z,9.55
2023-05-18T21:08:13.450Z,7.10
2023-05-18T21:10:48.637Z,7.80
2023-05-18T21:13:22.134Z,4.53
2023-05-18T21:15:54.293Z,4.75
2023-05-18T21:18:26.284Z,4.18
2023-05-18T21:20:58.868Z,3.00
2023-05-18T21:23:35.998Z,3.00
2023-05-18T21:26:08.620Z,3.40
2023-05-18T21:28:39.965Z,2.90
2023-05-18T21:31:18.018Z,3.53
2023-05-18T21:33:56.701Z,4.13
2023-05-18T21:36:34.557Z,5.80
2023-05-18T21:39:12.031Z,6.00
2023-05-18T21:41:44.776Z,5.82
2023-05-18T21:44:15.967Z,4.45
2023-05-18T21:46:55.579Z,4.70
2023-05-18T21:49:26.752Z,4.03
2023-05-18T21:52:04.971Z,3.38
2023-05-18T21:54:38.864Z,3.20
2023-05-18T21:57:11.212Z,2.90
2023-05-18T21:59:42.210Z,2.70
2023-05-18T22:02:13.976Z,4.13
2023-05-18T22:04:46.548Z,5.53
2023-05-18T22:07:20.540Z,4.60
2023-05-18T22:09:54.104Z,5.28
2023-05-18T22:12:29.385Z,5.32
2023-05-18T22:15:00.311Z,6.47
2023-05-18T22:17:31.978Z,4.70
2023-05-18T22:20:03.037Z,4.20
2023-05-18T22:22:35.418Z,4.93
2023-05-18T22:25:09.801Z,4.45
2023-05-18T22:27:41.843Z,3.53
2023-05-18T22:30:13.971Z,3.58
2023-05-18T22:32:46.556Z,3.50
2023-05-18T22:35:17.713Z,3.83
2023-05-18T22:37:49.102Z,3.97
2023-05-18T22:40:22.612Z,4.50
2023-05-18T22:42:55.282Z,4.70
2023-05-18T22:45:28.580Z,4.15
2023-05-18T22:48:00.279Z,4.10
2023-05-18T22:50:32.005Z,4.30
2023-05-18T22:53:05.170Z,4.20
2023-05-18T22:55:39.221Z,5.28
2023-05-18T22:58:10.742Z,4.70
2023-05-18T23:03:13.517Z,5.35
2023-05-18T23:05:44.597Z,4.78
2023-05-18T23:08:16.201Z,4.18
2023-05-18T23:10:51.019Z,4.93
2023-05-18T23:13:22.686Z,4.53
2023-05-18T23:15:56.472Z,5.30
2023-05-18T23:18:28.036Z,7.30
2023-05-18T23:20:59.171Z,11.45
2023-05-18T23:23:30.766Z,17.23
2023-05-18T23:26:06.836Z,14.10
2023-05-18T23:28:38.508Z,22.75
2023-05-18T23:31:09.556Z,29.35
2023-05-18T23:33:42.082Z,27.40
2023-05-18T23:36:15.409Z,21.27
2023-05-18T23:38:49.568Z,12.98
2023-05-18T23:41:23.367Z,9.63
2023-05-18T23:43:59.035Z,9.13
2023-05-18T23:46:30.786Z,6.32
2023-05-18T23:49:04.048Z,5.72
2023-05-18T23:51:38.772Z,5.10
2023-05-18T23:54:10.767Z,4.30
2023-05-18T23:56:44.961Z,4.43
2023-05-18T23:59:18.603Z,4.88
